Time;durP1;ratioP1;P1;durP2;ratioP2;P2;SDS_P1;SDS_P2;PMS_P1;PMS_P2;Temp;Humidity;BMP_temperature;BMP_pressure;BME280_temperature;BME280_humidity;BME280_pressure;Samples;Min_cycle;Max_cycle;Signal;HPM_P1;HPM_P2
2019/09/18 00:00:48;;;;;;;7.3;2.5;;;;;;;13.13;66.37109;1009.586;;;;
2019/09/18 00:03:14;;;;;;;7.5;2.7;;;;;;;13.1;66.43359;1009.601;;;;
2019/09/18 00:05:38;;;;;;;5.2;2.5;;;;;;;13.01;66.88086;1009.609;;;;
2019/09/18 00:08:04;;;;;;;6;3;;;;;;;12.94;67.2041;1009.609;;;;
2019/09/18 00:10:29;;;;;;;6.6;2.4;;;;;;;12.96;67.31055;1009.641;;;;
2019/09/18 00:12:54;;;;;;;6.6;2.4;;;;;;;12.89;67.50781;1009.584;;;;
2019/09/18 00:15:19;;;;;;;6.5;2.7;;;;;;;12.9;67.87598;1009.61;;;;
2019/09/18 00:17:44;;;;;;;6.1;2.3;;;;;;;12.96;67.41406;1009.66;;;;
2019/09/18 00:20:09;;;;;;;6;2.4;;;;;;;13;67.35059;1009.643;;;;
2019/09/18 00:22:34;;;;;;;4.3;2.2;;;;;;;12.9;67.72656;1009.746;;;;
2019/09/18 00:24:59;;;;;;;6.2;2.4;;;;;;;12.68;68.53223;1009.746;;;;
2019/09/18 00:27:25;;;;;;;5.4;2.3;;;;;;;12.69;68.68359;1009.781;;;;
2019/09/18 00:29:50;;;;;;;5.2;2.1;;;;;;;12.67;68.93359;1009.78;;;;
2019/09/18 00:32:15;;;;;;;4.8;2.6;;;;;;;12.56;69.35254;1009.79;;;;
2019/09/18 00:34:40;;;;;;;7.6;3.1;;;;;;;12.45;69.85254;1009.783;;;;
2019/09/18 00:37:05;;;;;;;6.1;2.6;;;;;;;12.45;69.89844;1009.869;;;;
2019/09/18 00:39:30;;;;;;;5.8;2.5;;;;;;;12.32;70.55664;1009.864;;;;
2019/09/18 00:41:55;;;;;;;6;2.5;;;;;;;12.23;71.25488;1009.882;;;;
2019/09/18 00:44:20;;;;;;;4.2;2.6;;;;;;;12.22;71.58594;1009.926;;;;
2019/09/18 00:46:46;;;;;;;6.1;2.8;;;;;;;12.11;72.05078;1009.884;;;;
2019/09/18 00:49:11;;;;;;;7.4;2.8;;;;;;;12.09;72.19727;1009.891;;;;
2019/09/18 00:51:36;;;;;;;8.9;3.1;;;;;;;12.03;72.46289;1009.932;;;;
2019/09/18 00:54:01;;;;;;;7.1;2.6;;;;;;;12.06;72.45605;1009.947;;;;
2019/09/18 00:56:26;;;;;;;8.1;2.9;;;;;;;11.95;73.03516;1009.939;;;;
2019/09/18 00:58:51;;;;;;;10.4;2.8;;;;;;;11.85;73.52148;1009.922;;;;
2019/09/18 01:01:16;;;;;;;6.4;3.1;;;;;;;11.8;73.87012;1009.92;;;;
2019/09/18 01:03:41;;;;;;;7.3;3;;;;;;;11.78;74.0625;1009.995;;;;
2019/09/18 01:06:06;;;;;;;9.6;2.9;;;;;;;11.9;73.55371;1009.982;;;;
2019/09/18 01:08:31;;;;;;;4.6;2.8;;;;;;;11.95;73.36816;1010.019;;;;
2019/09/18 01:10:56;;;;;;;6.5;3.1;;;;;;;11.79;73.9834;1010.033;;;;
2019/09/18 01:13:22;;;;;;;9.1;3.3;;;;;;;11.74;74.34277;1010.072;;;;
2019/09/18 01:15:47;;;;;;;8.8;3.1;;;;;;;11.72;74.59082;1010.049;;;;
2019/09/18 01:18:12;;;;;;;8.9;3.2;;;;;;;11.69;74.86133;1010.029;;;;
2019/09/18 01:20:37;;;;;;;8.4;3.3;;;;;;;11.7;74.99121;1009.995;;;;
2019/09/18 01:23:02;;;;;;;7.7;3.3;;;;;;;11.63;75.35547;1010.088;;;;
2019/09/18 01:25:27;;;;;;;6.3;3.2;;;;;;;11.62;75.45898;1010.072;;;;
2019/09/18 01:28:06;;;;;;;8.2;3.6;;;;;;;11.59;75.65918;1010.091;;;;
2019/09/18 01:30:17;;;;;;;8.1;3.5;;;;;;;11.56;75.87109;1010.07;;;;
2019/09/18 01:32:43;;;;;;;7.9;3.3;;;;;;;11.6;75.70703;1010.158;;;;
2019/09/18 01:35:08;;;;;;;8.4;3.3;;;;;;;11.68;75.54883;1010.165;;;;
2019/09/18 01:37:33;;;;;;;8.4;3.4;;;;;;;11.61;75.69531;1010.228;;;;
2019/09/18 01:39:58;;;;;;;6.4;3.2;;;;;;;11.62;75.58496;1010.246;;;;
2019/09/18 01:42:24;;;;;;;5.4;3.3;;;;;;;11.63;75.59668;1010.273;;;;
2019/09/18 01:44:49;;;;;;;7.4;3.4;;;;;;;11.59;75.86621;1010.238;;;;
2019/09/18 01:47:14;;;;;;;8.7;3.4;;;;;;;11.63;75.84961;1010.239;;;;
2019/09/18 01:49:39;;;;;;;5;3.2;;;;;;;11.63;75.55078;1010.217;;;;
2019/09/18 01:52:04;;;;;;;6.4;3.7;;;;;;;11.5;76.13672;1010.251;;;;
2019/09/18 01:54:30;;;;;;;8.2;3.6;;;;;;;11.4;76.54395;1010.242;;;;
2019/09/18 01:56:55;;;;;;;7.2;3.2;;;;;;;11.36;76.91504;1010.221;;;;
2019/09/18 01:59:20;;;;;;;6.2;3.6;;;;;;;11.37;77.05566;1010.235;;;;
2019/09/18 02:01:45;;;;;;;6.1;3.6;;;;;;;11.45;76.71289;1010.265;;;;
2019/09/18 02:04:10;;;;;;;8.3;3.3;;;;;;;11.39;77.00098;1010.33;;;;
2019/09/18 02:06:35;;;;;;;7.8;3.4;;;;;;;11.48;76.70801;1010.352;;;;
2019/09/18 02:09:01;;;;;;;6.2;3.4;;;;;;;11.32;77.08008;1010.323;;;;
2019/09/18 02:11:26;;;;;;;8.7;3.9;;;;;;;11.19;77.53809;1010.286;;;;
2019/09/18 02:13:51;;;;;;;8.8;3.9;;;;;;;10.97;78.41602;1010.304;;;;
2019/09/18 02:16:16;;;;;;;7.6;3.9;;;;;;;10.86;78.95801;1010.311;;;;
2019/09/18 02:18:41;;;;;;;8.4;3.5;;;;;;;10.79;79.21973;1010.401;;;;
2019/09/18 02:21:07;;;;;;;9.7;3.9;;;;;;;10.79;79.10449;1010.384;;;;
2019/09/18 02:23:32;;;;;;;8.4;3.8;;;;;;;10.74;79.29102;1010.413;;;;
2019/09/18 02:25:57;;;;;;;7.9;3.9;;;;;;;10.79;79.01367;1010.472;;;;
2019/09/18 02:28:22;;;;;;;8.4;4;;;;;;;10.78;78.87402;1010.432;;;;
2019/09/18 02:30:47;;;;;;;7.7;3.9;;;;;;;10.76;78.97266;1010.45;;;;
2019/09/18 02:33:12;;;;;;;7;4;;;;;;;10.72;79.08203;1010.399;;;;
2019/09/18 02:35:37;;;;;;;7;3.8;;;;;;;10.66;79.34473;1010.376;;;;
2019/09/18 02:38:02;;;;;;;9.1;4.1;;;;;;;10.73;79.10645;1010.379;;;;
2019/09/18 02:40:27;;;;;;;7.8;4.1;;;;;;;10.73;78.96875;1010.322;;;;
2019/09/18 02:42:53;;;;;;;10.4;4.2;;;;;;;10.68;79.08496;1010.328;;;;
2019/09/18 02:45:18;;;;;;;9.1;4;;;;;;;10.66;79.22949;1010.337;;;;
2019/09/18 02:47:43;;;;;;;7.1;3.8;;;;;;;10.62;79.33887;1010.322;;;;
2019/09/18 02:50:08;;;;;;;7.8;3.6;;;;;;;10.61;79.33496;1010.436;;;;
2019/09/18 02:52:33;;;;;;;9;4.1;;;;;;;10.53;79.68652;1010.471;;;;
2019/09/18 02:54:58;;;;;;;8.1;4;;;;;;;10.44;80.31152;1010.485;;;;
2019/09/18 02:57:24;;;;;;;9.5;4.2;;;;;;;10.34;80.94531;1010.54;;;;
2019/09/18 02:59:49;;;;;;;6.9;4.3;;;;;;;10.27;81.30859;1010.523;;;;
2019/09/18 03:02:14;;;;;;;9.8;4.7;;;;;;;10.24;81.50977;1010.526;;;;
2019/09/18 03:04:43;;;;;;;6.8;3.9;;;;;;;10.2;81.65039;1010.477;;;;
2019/09/18 03:07:04;;;;;;;10.3;4.4;;;;;;;10.2;81.51465;1010.495;;;;
2019/09/18 03:09:29;;;;;;;9.5;4.5;;;;;;;10.1;81.83691;1010.518;;;;
2019/09/18 03:11:54;;;;;;;7.7;4.3;;;;;;;10.06;81.95605;1010.541;;;;
2019/09/18 03:14:19;;;;;;;7.3;4.3;;;;;;;10.04;81.92969;1010.573;;;;
2019/09/18 03:16:45;;;;;;;7.4;4.1;;;;;;;10.07;81.77441;1010.638;;;;
2019/09/18 03:19:10;;;;;;;7.8;4.3;;;;;;;10.09;81.58398;1010.642;;;;
2019/09/18 03:21:35;;;;;;;6.8;4;;;;;;;10.22;81.11719;1010.615;;;;
2019/09/18 03:24:00;;;;;;;9.2;4.5;;;;;;;10.27;80.80762;1010.64;;;;
2019/09/18 03:26:25;;;;;;;7.9;4.2;;;;;;;10.27;80.8623;1010.651;;;;
2019/09/18 03:28:50;;;;;;;10.1;4.2;;;;;;;10.21;81.12695;1010.67;;;;
2019/09/18 03:31:15;;;;;;;8.5;4.2;;;;;;;10.2;81.1709;1010.657;;;;
2019/09/18 03:33:41;;;;;;;6.7;4;;;;;;;10.27;80.95605;1010.63;;;;
2019/09/18 03:36:06;;;;;;;7.1;4.5;;;;;;;10.26;80.98828;1010.603;;;;
2019/09/18 03:38:31;;;;;;;10.1;4.6;;;;;;;10.18;81.41992;1010.591;;;;
2019/09/18 03:40:56;;;;;;;8.5;4.5;;;;;;;10.2;81.44531;1010.597;;;;
2019/09/18 03:43:21;;;;;;;6.2;4.3;;;;;;;10.1;81.89453;1010.586;;;;
2019/09/18 03:45:46;;;;;;;9.7;4.7;;;;;;;10;82.27734;1010.582;;;;
2019/09/18 03:48:11;;;;;;;8.1;4.5;;;;;;;10.03;82.17969;1010.609;;;;
2019/09/18 03:50:36;;;;;;;8.5;4.8;;;;;;;10.01;82.1875;1010.6;;;;
2019/09/18 03:53:02;;;;;;;7.8;4.6;;;;;;;9.88;82.68945;1010.603;;;;
2019/09/18 03:55:27;;;;;;;7.1;5.1;;;;;;;9.79;83.07227;1010.579;;;;
2019/09/18 03:57:52;;;;;;;8.9;4.9;;;;;;;9.79;83.03613;1010.571;;;;
2019/09/18 04:02:28;;;;;;;9.5;5;;;;;;;9.69;83.37109;1010.571;;;;
2019/09/18 04:04:53;;;;;;;9.9;4.6;;;;;;;9.64;83.52051;1010.579;;;;
2019/09/18 04:07:18;;;;;;;8.3;4.9;;;;;;;9.64;83.55664;1010.583;;;;
2019/09/18 04:09:43;;;;;;;9.3;4.8;;;;;;;9.61;83.59766;1010.611;;;;
2019/09/18 04:12:08;;;;;;;10.7;5;;;;;;;9.59;83.66211;1010.683;;;;
2019/09/18 04:14:33;;;;;;;8.1;4.8;;;;;;;9.58;83.72559;1010.709;;;;
2019/09/18 04:16:58;;;;;;;7.4;5.3;;;;;;;9.56;83.84766;1010.733;;;;
2019/09/18 04:19:23;;;;;;;9.7;5.5;;;;;;;9.57;83.75977;1010.761;;;;
2019/09/18 04:21:48;;;;;;;10.6;5.2;;;;;;;9.61;83.62988;1010.793;;;;
2019/09/18 04:24:13;;;;;;;8.6;5;;;;;;;9.72;83.27539;1010.776;;;;
2019/09/18 04:26:39;;;;;;;9;5.4;;;;;;;9.75;83.0752;1010.796;;;;
2019/09/18 04:29:04;;;;;;;11;5.6;;;;;;;9.84;82.75879;1010.848;;;;
2019/09/18 04:31:29;;;;;;;10.6;5.4;;;;;;;9.83;82.89453;1010.924;;;;
2019/09/18 04:33:54;;;;;;;8.5;5.1;;;;;;;9.8;82.98047;1010.865;;;;
2019/09/18 04:36:19;;;;;;;7.7;4.9;;;;;;;9.82;83.12109;1010.855;;;;
2019/09/18 04:38:44;;;;;;;9.9;5.3;;;;;;;9.87;82.77734;1010.907;;;;
2019/09/18 04:41:09;;;;;;;9.5;5;;;;;;;9.94;82.40234;1010.939;;;;
2019/09/18 04:43:34;;;;;;;8.2;5.3;;;;;;;9.7;83.19238;1010.932;;;;
2019/09/18 04:45:59;;;;;;;9.4;5.2;;;;;;;9.83;82.88477;1011.011;;;;
2019/09/18 04:48:24;;;;;;;9.4;5.2;;;;;;;9.89;82.50684;1010.994;;;;
2019/09/18 04:50:49;;;;;;;10.6;5.3;;;;;;;9.61;83.51563;1010.966;;;;
2019/09/18 04:53:14;;;;;;;9.9;5.6;;;;;;;9.36;84.71094;1010.97;;;;
2019/09/18 04:55:40;;;;;;;11.7;6.4;;;;;;;9.24;85.32715;1010.983;;;;
2019/09/18 04:58:05;;;;;;;10.4;5.9;;;;;;;9.2;85.6377;1011.078;;;;
2019/09/18 05:00:30;;;;;;;10.1;5.9;;;;;;;9.19;85.78418;1011.018;;;;
2019/09/18 05:02:55;;;;;;;9.3;5.3;;;;;;;9.35;85.16602;1011.022;;;;
2019/09/18 05:05:20;;;;;;;9;5;;;;;;;9.53;83.90137;1011.056;;;;
2019/09/18 05:07:45;;;;;;;12.4;5.9;;;;;;;9.73;82.44141;1011.133;;;;
2019/09/18 05:10:11;;;;;;;8.5;5.1;;;;;;;9.6;82.45117;1011.106;;;;
2019/09/18 05:12:35;;;;;;;10.7;5.3;;;;;;;9.21;83.97363;1011.055;;;;
2019/09/18 05:15:00;;;;;;;7.9;5.6;;;;;;;9.04;85.05957;1011.109;;;;
2019/09/18 05:17:27;;;;;;;7.8;5.2;;;;;;;9.05;85.12988;1011.149;;;;
2019/09/18 05:19:59;;;;;;;11.3;6;;;;;;;8.93;86.11035;1011.129;;;;
2019/09/18 05:22:16;;;;;;;10.6;5.7;;;;;;;8.92;86.32617;1011.151;;;;
2019/09/18 05:24:41;;;;;;;8;5.3;;;;;;;9;86.30762;1011.132;;;;
2019/09/18 05:27:06;;;;;;;13.2;6.1;;;;;;;8.98;86.24707;1011.123;;;;
2019/09/18 05:29:31;;;;;;;12.4;6.3;;;;;;;8.93;86.55371;1011.065;;;;
2019/09/18 05:31:56;;;;;;;8.2;6;;;;;;;9.06;85.97656;1011.063;;;;
2019/09/18 05:34:21;;;;;;;8.9;6;;;;;;;9.13;85.56836;1011.069;;;;
2019/09/18 05:36:47;;;;;;;12.5;6.1;;;;;;;;;;;;;
2019/09/18 05:39:12;;;;;;;13.2;6.2;;;;;;;;;;;;;
2019/09/18 05:41:37;;;;;;;13;7;;;;;;;;;;;;;
2019/09/18 05:44:02;;;;;;;12.2;6.5;;;;;;;;;;;;;
2019/09/18 05:46:27;;;;;;;11.1;6.7;;;;;;;;;;;;;
2019/09/18 05:48:52;;;;;;;9.5;6.1;;;;;;;;;;;;;
2019/09/18 05:51:17;;;;;;;11.2;6.2;;;;;;;;;;;;;
2019/09/18 05:53:42;;;;;;;10.6;6.2;;;;;;;;;;;;;
2019/09/18 05:56:07;;;;;;;10.2;5.6;;;;;;;;;;;;;
2019/09/18 05:58:32;;;;;;;8;5.1;;;;;;;;;;;;;
2019/09/18 06:00:57;;;;;;;10;5.2;;;;;;;;;;;;;
2019/09/18 06:03:22;;;;;;;12.7;5.2;;;;;;;;;;;;;
2019/09/18 06:05:48;;;;;;;12.6;5.2;;;;;;;;;;;;;
2019/09/18 06:08:13;;;;;;;9.6;4.6;;;;;;;;;;;;;
2019/09/18 06:10:38;;;;;;;8.8;4.2;;;;;;;;;;;;;
2019/09/18 06:13:03;;;;;;;11.1;4.2;;;;;;;;;;;;;
2019/09/18 06:15:28;;;;;;;9.4;4.1;;;;;;;;;;;;;
2019/09/18 06:17:53;;;;;;;8.2;3.7;;;;;;;;;;;;;
2019/09/18 06:20:18;;;;;;;8;3.7;;;;;;;;;;;;;
2019/09/18 06:22:43;;;;;;;8.5;3.8;;;;;;;;;;;;;
2019/09/18 06:25:17;;;;;;;7.3;3.5;;;;;;;;;;;;;
2019/09/18 06:27:42;;;;;;;8.7;3.8;;;;;;;;;;;;;
2019/09/18 06:30:07;;;;;;;8.7;3.4;;;;;;;;;;;;;
2019/09/18 06:32:33;;;;;;;8.3;3.3;;;;;;;;;;;;;
2019/09/18 06:34:58;;;;;;;6.9;3.2;;;;;;;;;;;;;
2019/09/18 06:37:23;;;;;;;7.3;3.2;;;;;;;;;;;;;
2019/09/18 06:39:48;;;;;;;6.7;2.7;;;;;;;;;;;;;
2019/09/18 06:42:13;;;;;;;7.1;2.8;;;;;;;;;;;;;
2019/09/18 06:44:38;;;;;;;10.4;3.2;;;;;;;;;;;;;
2019/09/18 06:47:03;;;;;;;8.6;3;;;;;;;;;;;;;
2019/09/18 06:49:28;;;;;;;5.7;2.8;;;;;;;;;;;;;
2019/09/18 06:51:53;;;;;;;6.6;2.3;;;;;;;;;;;;;
2019/09/18 06:54:18;;;;;;;11.7;2.6;;;;;;;;;;;;;
2019/09/18 06:56:43;;;;;;;7.2;2.6;;;;;;;;;;;;;
2019/09/18 06:59:09;;;;;;;6.3;2.1;;;;;;;;;;;;;
2019/09/18 07:01:34;;;;;;;9.4;2.5;;;;;;;;;;;;;
2019/09/18 07:03:59;;;;;;;6.9;2.1;;;;;;;;;;;;;
2019/09/18 07:06:24;;;;;;;7.8;2;;;;;;;;;;;;;
2019/09/18 07:08:49;;;;;;;7.3;2.1;;;;;;;;;;;;;
2019/09/18 07:11:14;;;;;;;7.9;2.3;;;;;;;;;;;;;
2019/09/18 07:13:40;;;;;;;9.8;2.1;;;;;;;;;;;;;
2019/09/18 07:16:05;;;;;;;6;1.9;;;;;;;;;;;;;
2019/09/18 07:18:30;;;;;;;5.6;1.9;;;;;;;;;;;;;
2019/09/18 07:20:55;;;;;;;7.7;1.9;;;;;;;;;;;;;
2019/09/18 07:23:20;;;;;;;11.8;2.2;;;;;;;;;;;;;
2019/09/18 07:25:45;;;;;;;6;1.8;;;;;;;;;;;;;
2019/09/18 07:28:10;;;;;;;5.4;1.9;;;;;;;;;;;;;
2019/09/18 07:30:35;;;;;;;6.2;2.2;;;;;;;;;;;;;
2019/09/18 07:33:01;;;;;;;7;1.9;;;;;;;;;;;;;
2019/09/18 07:35:25;;;;;;;8.3;2.1;;;;;;;;;;;;;
2019/09/18 07:37:51;;;;;;;7.2;2;;;;;;;;;;;;;
2019/09/18 07:40:16;;;;;;;6.3;1.7;;;;;;;;;;;;;
2019/09/18 07:42:41;;;;;;;5.5;1.8;;;;;;;;;;;;;
2019/09/18 07:45:06;;;;;;;9.2;1.9;;;;;;;;;;;;;
2019/09/18 07:47:31;;;;;;;6.9;1.9;;;;;;;;;;;;;
2019/09/18 07:49:56;;;;;;;7.9;1.9;;;;;;;;;;;;;
2019/09/18 07:52:21;;;;;;;5.5;1.8;;;;;;;;;;;;;
2019/09/18 07:54:46;;;;;;;5;1.6;;;;;;;;;;;;;
2019/09/18 07:57:11;;;;;;;7.8;1.8;;;;;;;;;;;;;
2019/09/18 07:59:36;;;;;;;6.7;1.7;;;;;;;;;;;;;
2019/09/18 08:02:01;;;;;;;6.9;1.8;;;;;;;;;;;;;
2019/09/18 08:04:26;;;;;;;6.6;1.8;;;;;;;;;;;;;
2019/09/18 08:06:52;;;;;;;7.2;2;;;;;;;;;;;;;
2019/09/18 08:09:17;;;;;;;6.6;1.9;;;;;;;;;;;;;
2019/09/18 08:11:42;;;;;;;7.4;1.9;;;;;;;;;;;;;
2019/09/18 08:14:07;;;;;;;7.3;1.6;;;;;;;;;;;;;
2019/09/18 08:16:39;;;;;;;8;1.9;;;;;;;;;;;;;
2019/09/18 08:19:00;;;;;;;6.6;1.7;;;;;;;;;;;;;
2019/09/18 08:21:22;;;;;;;6.4;1.9;;;;;;;;;;;;;
2019/09/18 08:23:54;;;;;;;6.8;2.1;;;;;;;;;;;;;
2019/09/18 08:26:12;;;;;;;5.5;1.8;;;;;;;;;;;;;
2019/09/18 08:28:38;;;;;;;7.6;1.6;;;;;;;;;;;;;
2019/09/18 08:31:03;;;;;;;7.9;1.8;;;;;;;;;;;;;
2019/09/18 08:33:28;;;;;;;6.5;1.7;;;;;;;;;;;;;
2019/09/18 08:35:53;;;;;;;7.1;2;;;;;;;;;;;;;
2019/09/18 08:38:18;;;;;;;9.1;2.4;;;;;;;;;;;;;
2019/09/18 08:40:43;;;;;;;8.7;1.7;;;;;;;;;;;;;
2019/09/18 08:43:08;;;;;;;6.2;2;;;;;;;;;;;;;
2019/09/18 08:45:33;;;;;;;6.3;2.3;;;;;;;;;;;;;
2019/09/18 08:47:58;;;;;;;4.7;1.6;;;;;;;;;;;;;
2019/09/18 08:50:24;;;;;;;7.4;1.8;;;;;;;;;;;;;
2019/09/18 08:52:49;;;;;;;4.8;1.7;;;;;;;;;;;;;
2019/09/18 08:55:14;;;;;;;9.5;2.3;;;;;;;;;;;;;
2019/09/18 08:57:39;;;;;;;8.3;3.9;;;;;;;;;;;;;
2019/09/18 09:00:04;;;;;;;7.6;1.8;;;;;;;;;;;;;
2019/09/18 09:02:29;;;;;;;6.6;1.7;;;;;;;;;;;;;
2019/09/18 09:04:54;;;;;;;7.4;1.6;;;;;;;;;;;;;
2019/09/18 09:07:19;;;;;;;6.5;2;;;;;;;;;;;;;
2019/09/18 09:09:44;;;;;;;6.6;2.2;;;;;;;;;;;;;
2019/09/18 09:12:09;;;;;;;7.8;2.3;;;;;;;;;;;;;
2019/09/18 09:14:35;;;;;;;8.4;2.1;;;;;;;;;;;;;
2019/09/18 09:17:00;;;;;;;7.6;2;;;;;;;;;;;;;
2019/09/18 09:19:25;;;;;;;7.8;2.3;;;;;;;;;;;;;
2019/09/18 09:21:50;;;;;;;7.6;1.8;;;;;;;;;;;;;
2019/09/18 09:24:15;;;;;;;7.7;2;;;;;;;;;;;;;
2019/09/18 09:26:40;;;;;;;5.5;1.7;;;;;;;;;;;;;
2019/09/18 09:29:05;;;;;;;7.6;1.6;;;;;;;;;;;;;
2019/09/18 09:31:30;;;;;;;6.9;1.9;;;;;;;;;;;;;
2019/09/18 09:33:56;;;;;;;8.6;2.5;;;;;;;;;;;;;
2019/09/18 09:36:21;;;;;;;7.4;1.8;;;;;;;;;;;;;
2019/09/18 09:38:46;;;;;;;10.2;4.4;;;;;;;;;;;;;
2019/09/18 09:41:11;;;;;;;14.2;4.2;;;;;;;;;;;;;
2019/09/18 09:43:36;;;;;;;6.6;1.7;;;;;;;;;;;;;
2019/09/18 09:46:01;;;;;;;7;2.2;;;;;;;;;;;;;
2019/09/18 09:48:27;;;;;;;5.8;1.6;;;;;;;;;;;;;
2019/09/18 09:50:52;;;;;;;3.7;1.1;;;;;;;;;;;;;
2019/09/18 09:53:17;;;;;;;5.6;1.7;;;;;;;;;;;;;
2019/09/18 09:55:42;;;;;;;8.4;4.1;;;;;;;;;;;;;
2019/09/18 09:58:07;;;;;;;7.4;3;;;;;;;;;;;;;
2019/09/18 10:00:32;;;;;;;18;8.1;;;;;;;;;;;;;
2019/09/18 10:02:57;;;;;;;5.4;1.9;;;;;;;;;;;;;
2019/09/18 10:05:22;;;;;;;6;1.7;;;;;;;;;;;;;
2019/09/18 10:07:47;;;;;;;5.6;1.7;;;;;;;;;;;;;
2019/09/18 10:10:12;;;;;;;11.6;5.3;;;;;;;;;;;;;
2019/09/18 10:12:37;;;;;;;6.9;1.6;;;;;;;;;;;;;
2019/09/18 10:15:03;;;;;;;3.9;1.3;;;;;;;;;;;;;
2019/09/18 10:17:28;;;;;;;5.2;1.4;;;;;;;;;;;;;
2019/09/18 10:19:53;;;;;;;5.2;2.7;;;;;;;;;;;;;
2019/09/18 10:22:18;;;;;;;6.9;1.6;;;;;;;;;;;;;
2019/09/18 10:25:25;;;;;;;6.9;1.9;;;;;;;;;;;;;
2019/09/18 10:27:08;;;;;;;4.8;1.2;;;;;;;;;;;;;
2019/09/18 10:29:33;;;;;;;9.7;4.5;;;;;;;;;;;;;
2019/09/18 10:31:58;;;;;;;13.5;6.7;;;;;;;;;;;;;
2019/09/18 10:34:23;;;;;;;7.8;3.4;;;;;;;;;;;;;
2019/09/18 10:36:49;;;;;;;10.5;3.7;;;;;;;;;;;;;
2019/09/18 10:39:13;;;;;;;5.6;1.8;;;;;;;;;;;;;
2019/09/18 10:41:39;;;;;;;4.8;1.4;;;;;;;;;;;;;
2019/09/18 10:44:04;;;;;;;7;1.5;;;;;;;;;;;;;
2019/09/18 10:46:29;;;;;;;4.8;1.4;;;;;;;;;;;;;
2019/09/18 10:48:54;;;;;;;6.3;1.7;;;;;;;;;;;;;
2019/09/18 10:51:19;;;;;;;6.4;2.6;;;;;;;;;;;;;
2019/09/18 10:53:44;;;;;;;11;3.4;;;;;;;;;;;;;
2019/09/18 10:56:09;;;;;;;9;3.8;;;;;;;;;;;;;
2019/09/18 10:58:34;;;;;;;7.5;2.8;;;;;;;;;;;;;
2019/09/18 11:00:59;;;;;;;5.3;1.3;;;;;;;;;;;;;
2019/09/18 11:03:24;;;;;;;8.6;3.8;;;;;;;;;;;;;
2019/09/18 11:05:49;;;;;;;6.3;2.1;;;;;;;;;;;;;
2019/09/18 11:08:15;;;;;;;4.8;1.4;;;;;;;;;;;;;
2019/09/18 11:10:40;;;;;;;6.3;2.2;;;;;;;;;;;;;
2019/09/18 11:13:05;;;;;;;4.5;1.4;;;;;;;;;;;;;
2019/09/18 11:15:30;;;;;;;5.6;1.9;;;;;;;;;;;;;
2019/09/18 11:17:55;;;;;;;6.6;2;;;;;;;;;;;;;
2019/09/18 11:20:20;;;;;;;5.8;1.8;;;;;;;;;;;;;
2019/09/18 11:22:45;;;;;;;3.7;1.1;;;;;;;;;;;;;
2019/09/18 11:25:17;;;;;;;10.3;4;;;;;;;;;;;;;
2019/09/18 11:27:42;;;;;;;4.9;1.4;;;;;;;;;;;;;
2019/09/18 11:30:07;;;;;;;5.6;1.4;;;;;;;;;;;;;
2019/09/18 11:32:32;;;;;;;5.4;1.2;;;;;;;;;;;;;
2019/09/18 11:34:57;;;;;;;9.3;2.3;;;;;;;;;;;;;
2019/09/18 11:37:22;;;;;;;7.2;2.8;;;;;;;;;;;;;
2019/09/18 11:39:47;;;;;;;9.3;1.6;;;;;;;;;;;;;
2019/09/18 11:42:12;;;;;;;8.7;1.4;;;;;;;;;;;;;
2019/09/18 11:44:37;;;;;;;7.2;1.8;;;;;;;;;;;;;
2019/09/18 11:47:03;;;;;;;6.9;1.4;;;;;;;;;;;;;
2019/09/18 11:49:28;;;;;;;7.4;1.6;;;;;;;;;;;;;
2019/09/18 11:51:53;;;;;;;11.4;3.3;;;;;;;;;;;;;
2019/09/18 11:54:18;;;;;;;9.1;2.6;;;;;;;;;;;;;
2019/09/18 11:56:43;;;;;;;5.2;1.3;;;;;;;;;;;;;
2019/09/18 11:59:09;;;;;;;5.9;1.6;;;;;;;;;;;;;
2019/09/18 12:01:33;;;;;;;7.1;1.7;;;;;;;;;;;;;
2019/09/18 12:03:58;;;;;;;3.9;1.1;;;;;;;;;;;;;
2019/09/18 12:06:24;;;;;;;6.3;1.5;;;;;;;;;;;;;
2019/09/18 12:08:48;;;;;;;6.1;1.5;;;;;;;;;;;;;
2019/09/18 12:11:14;;;;;;;6.9;1.7;;;;;;;;;;;;;
2019/09/18 12:13:39;;;;;;;5.3;1.3;;;;;;;;;;;;;
2019/09/18 12:16:04;;;;;;;7.1;1.9;;;;;;;;;;;;;
2019/09/18 12:18:29;;;;;;;6.6;1.2;;;;;;;;;;;;;
2019/09/18 12:20:54;;;;;;;10;1.9;;;;;;;;;;;;;
2019/09/18 12:23:19;;;;;;;6.7;1.6;;;;;;;;;;;;;
2019/09/18 12:25:44;;;;;;;7.4;2.3;;;;;;;;;;;;;
2019/09/18 12:28:09;;;;;;;5.7;1.9;;;;;;;;;;;;;
2019/09/18 12:30:34;;;;;;;5.4;1.7;;;;;;;;;;;;;
2019/09/18 12:33:00;;;;;;;6.6;2.2;;;;;;;;;;;;;
2019/09/18 12:35:25;;;;;;;7.1;1.3;;;;;;;;;;;;;
2019/09/18 12:37:50;;;;;;;21;9.4;;;;;;;;;;;;;
2019/09/18 12:40:15;;;;;;;8;2.9;;;;;;;;;;;;;
2019/09/18 12:42:40;;;;;;;31;14.5;;;;;;;;;;;;;
2019/09/18 12:45:05;;;;;;;22.5;12.3;;;;;;;;;;;;;
2019/09/18 12:47:30;;;;;;;6.1;1.9;;;;;;;;;;;;;
2019/09/18 12:52:20;;;;;;;6.7;2.7;;;;;;;;;;;;;
2019/09/18 12:54:51;;;;;;;5.3;1.8;;;;;;;;;;;;;
2019/09/18 12:57:15;;;;;;;5.3;2.3;;;;;;;;;;;;;
2019/09/18 12:59:37;;;;;;;4.3;1.1;;;;;;;;;;;;;
2019/09/18 13:02:01;;;;;;;3.8;1.2;;;;;;;;;;;;;
2019/09/18 13:04:26;;;;;;;6.3;1.4;;;;;;;;;;;;;
2019/09/18 13:06:51;;;;;;;3.4;1.2;;;;;;;;;;;;;
2019/09/18 13:09:16;;;;;;;5.3;1;;;;;;;;;;;;;
2019/09/18 13:11:41;;;;;;;3.4;1;;;;;;;;;;;;;
2019/09/18 13:14:06;;;;;;;2.4;0.7;;;;;;;;;;;;;
2019/09/18 13:16:31;;;;;;;3.7;1;;;;;;;;;;;;;
2019/09/18 13:18:56;;;;;;;2.7;0.8;;;;;;;;;;;;;
2019/09/18 13:21:22;;;;;;;3.6;1.1;;;;;;;;;;;;;
2019/09/18 13:23:47;;;;;;;2.9;1;;;;;;;;;;;;;
2019/09/18 13:26:12;;;;;;;4.1;1.2;;;;;;;;;;;;;
2019/09/18 13:28:37;;;;;;;5.1;1.1;;;;;;;;;;;;;
2019/09/18 13:31:02;;;;;;;5.4;1.2;;;;;;;;;;;;;
2019/09/18 13:33:27;;;;;;;3.7;0.9;;;;;;;;;;;;;
2019/09/18 13:35:52;;;;;;;4.8;1.1;;;;;;;;;;;;;
2019/09/18 13:38:17;;;;;;;4.3;1;;;;;;;;;;;;;
2019/09/18 13:40:42;;;;;;;3.7;0.9;;;;;;;;;;;;;
2019/09/18 13:43:07;;;;;;;7.5;1.2;;;;;;;;;;;;;
2019/09/18 13:45:33;;;;;;;4.6;1;;;;;;;;;;;;;
2019/09/18 13:47:58;;;;;;;4.5;1.1;;;;;;;;;;;;;
2019/09/18 13:50:23;;;;;;;3.6;1;;;;;;;;;;;;;
2019/09/18 13:52:48;;;;;;;5.6;1.1;;;;;;;;;;;;;
2019/09/18 13:55:13;;;;;;;3.2;0.9;;;;;;;;;;;;;
2019/09/18 13:57:38;;;;;;;7;1.3;;;;;;;;;;;;;
2019/09/18 14:00:03;;;;;;;2.8;1;;;;;;;;;;;;;
2019/09/18 14:02:29;;;;;;;6.3;1.2;;;;;;;;;;;;;
2019/09/18 14:04:54;;;;;;;3.9;1.1;;;;;;;;;;;;;
2019/09/18 14:07:19;;;;;;;5.1;1.2;;;;;;;;;;;;;
2019/09/18 14:09:44;;;;;;;5.6;1.3;;;;;;;;;;;;;
2019/09/18 14:12:09;;;;;;;4.4;1.1;;;;;;;;;;;;;
2019/09/18 14:14:34;;;;;;;4.8;1.1;;;;;;;;;;;;;
2019/09/18 14:16:59;;;;;;;5.5;1.3;;;;;;;;;;;;;
2019/09/18 14:19:26;;;;;;;3.7;1;;;;;;;;;;;;;
2019/09/18 14:21:51;;;;;;;4.5;1.1;;;;;;;;;;;;;
2019/09/18 14:24:16;;;;;;;5.3;1.3;;;;;;;;;;;;;
2019/09/18 14:26:41;;;;;;;4;1.1;;;;;;;;;;;;;
2019/09/18 14:29:06;;;;;;;3.2;1.1;;;;;;;;;;;;;
2019/09/18 14:31:33;;;;;;;3.7;1.1;;;;;;;;;;;;;
2019/09/18 14:33:56;;;;;;;4;1.2;;;;;;;;;;;;;
2019/09/18 14:36:21;;;;;;;5.6;1.1;;;;;;;;;;;;;
2019/09/18 14:38:46;;;;;;;4.2;1.1;;;;;;;;;;;;;
2019/09/18 14:41:12;;;;;;;4.4;1;;;;;;;;;;;;;
2019/09/18 14:43:37;;;;;;;5.5;1.3;;;;;;;;;;;;;
2019/09/18 14:46:03;;;;;;;4.3;1.1;;;;;;;;;;;;;
2019/09/18 14:48:27;;;;;;;2.8;1;;;;;;;;;;;;;
2019/09/18 14:50:52;;;;;;;3.6;1.3;;;;;;;;;;;;;
2019/09/18 14:53:17;;;;;;;4.1;0.9;;;;;;;;;;;;;
2019/09/18 14:55:42;;;;;;;7.5;1.5;;;;;;;;;;;;;
2019/09/18 14:58:07;;;;;;;3.9;1.1;;;;;;;;;;;;;
2019/09/18 15:00:33;;;;;;;3.9;1;;;;;;;;;;;;;
2019/09/18 15:02:58;;;;;;;3.5;1.2;;;;;;;;;;;;;
2019/09/18 15:05:23;;;;;;;5.3;1.3;;;;;;;;;;;;;
2019/09/18 15:07:48;;;;;;;4.6;1.3;;;;;;;;;;;;;
2019/09/18 15:10:13;;;;;;;3.9;1;;;;;;;;;;;;;
2019/09/18 15:12:38;;;;;;;5.4;1.3;;;;;;;;;;;;;
2019/09/18 15:15:03;;;;;;;3.3;1;;;;;;;;;;;;;
2019/09/18 15:17:29;;;;;;;5.9;1.3;;;;;;;;;;;;;
2019/09/18 15:19:53;;;;;;;4.5;1.2;;;;;;;;;;;;;
2019/09/18 15:22:19;;;;;;;3.6;1.1;;;;;;;;;;;;;
2019/09/18 15:24:43;;;;;;;5.1;1.2;;;;;;;;;;;;;
2019/09/18 15:27:09;;;;;;;5.2;1.4;;;;;;;;;;;;;
2019/09/18 15:29:34;;;;;;;4;1;;;;;;;;;;;;;
2019/09/18 15:31:59;;;;;;;6.5;1.1;;;;;;;;;;;;;
2019/09/18 15:34:24;;;;;;;5.5;1.3;;;;;;;;;;;;;
2019/09/18 15:36:49;;;;;;;4.8;1.4;;;;;;;;;;;;;
2019/09/18 15:39:14;;;;;;;3.9;1.3;;;;;;;;;;;;;
2019/09/18 15:41:39;;;;;;;5.9;1.4;;;;;;;;;;;;;
2019/09/18 15:44:04;;;;;;;8.1;1.3;;;;;;;;;;;;;
2019/09/18 15:46:30;;;;;;;4.6;1.5;;;;;;;;;;;;;
2019/09/18 15:48:55;;;;;;;4.6;1.5;;;;;;;;;;;;;
2019/09/18 15:51:20;;;;;;;5.9;1.4;;;;;;;;;;;;;
2019/09/18 15:53:45;;;;;;;6.1;1.4;;;;;;;;;;;;;
2019/09/18 15:56:10;;;;;;;5.4;1.2;;;;;;;;;;;;;
2019/09/18 15:58:35;;;;;;;4.4;1.1;;;;;;;;;;;;;
2019/09/18 16:01:00;;;;;;;7.3;1.5;;;;;;;;;;;;;
2019/09/18 16:03:25;;;;;;;6.5;1.3;;;;;;;;;;;;;
2019/09/18 16:05:51;;;;;;;4.9;1.4;;;;;;;;;;;;;
2019/09/18 16:08:16;;;;;;;5.6;1.6;;;;;;;;;;;;;
2019/09/18 16:10:41;;;;;;;6.6;1.5;;;;;;;;;;;;;
2019/09/18 16:13:06;;;;;;;5.8;1.4;;;;;;;;;;;;;
2019/09/18 16:15:31;;;;;;;5.9;1.2;;;;;;;;;;;;;
2019/09/18 16:17:56;;;;;;;4.2;1.2;;;;;;;;;;;;;
2019/09/18 16:20:21;;;;;;;5.5;1.3;;;;;;;;;;;;;
2019/09/18 16:22:46;;;;;;;5.7;1.4;;;;;;;;;;;;;
2019/09/18 16:25:11;;;;;;;8;1.7;;;;;;;;;;;;;
2019/09/18 16:27:36;;;;;;;4.9;1.4;;;;;;;;;;;;;
2019/09/18 16:30:01;;;;;;;8.9;1.5;;;;;;;;;;;;;
2019/09/18 16:32:27;;;;;;;7.4;1.3;;;;;;;;;;;;;
2019/09/18 16:34:52;;;;;;;6.8;1.6;;;;;;;;;;;;;
2019/09/18 16:37:17;;;;;;;4.7;1.4;;;;;;;;;;;;;
2019/09/18 16:39:42;;;;;;;5.6;1.3;;;;;;;;;;;;;
2019/09/18 16:42:07;;;;;;;7.1;1.5;;;;;;;;;;;;;
2019/09/18 16:44:32;;;;;;;6.4;1.3;;;;;;;;;;;;;
2019/09/18 16:46:57;;;;;;;5.6;1.5;;;;;;;;;;;;;
2019/09/18 16:49:24;;;;;;;4.6;1;;;;;;;;;;;;;
2019/09/18 16:51:47;;;;;;;5.3;1.3;;;;;;;;;;;;;
2019/09/18 16:54:12;;;;;;;3.8;1.4;;;;;;;;;;;;;
2019/09/18 16:56:37;;;;;;;6.5;1.4;;;;;;;;;;;;;
2019/09/18 16:59:03;;;;;;;6.9;1.5;;;;;;;;;;;;;
2019/09/18 17:01:28;;;;;;;7.7;1.4;;;;;;;;;;;;;
2019/09/18 17:03:53;;;;;;;7;1.6;;;;;;;;;;;;;
2019/09/18 17:06:32;;;;;;;5.4;1.2;;;;;;;;;;;;;
2019/09/18 17:08:43;;;;;;;4.2;1.2;;;;;;;;;;;;;
2019/09/18 17:11:08;;;;;;;7.4;1.6;;;;;;;;;;;;;
2019/09/18 17:13:33;;;;;;;4.4;1.2;;;;;;;;;;;;;
2019/09/18 17:15:58;;;;;;;4.3;1.2;;;;;;;;;;;;;
2019/09/18 17:18:23;;;;;;;4.6;1.1;;;;;;;;;;;;;
2019/09/18 17:20:48;;;;;;;3.7;1.1;;;;;;;;;;;;;
2019/09/18 17:23:13;;;;;;;5.2;1.4;;;;;;;;;;;;;
2019/09/18 17:25:39;;;;;;;7.2;1.2;;;;;;;;;;;;;
2019/09/18 17:28:04;;;;;;;4.5;1.3;;;;;;;;;;;;;
2019/09/18 17:30:29;;;;;;;5.7;1.3;;;;;;;;;;;;;
2019/09/18 17:32:54;;;;;;;4.4;1.5;;;;;;;;;;;;;
2019/09/18 17:35:19;;;;;;;5.7;1.6;;;;;;;;;;;;;
2019/09/18 17:37:44;;;;;;;4.3;1.3;;;;;;;;;;;;;
2019/09/18 17:40:09;;;;;;;5.3;1.2;;;;;;;;;;;;;
2019/09/18 17:42:34;;;;;;;5;1.2;;;;;;;;;;;;;
2019/09/18 17:45:00;;;;;;;4.5;1.4;;;;;;;;;;;;;
2019/09/18 17:47:25;;;;;;;5.4;1.6;;;;;;;;;;;;;
2019/09/18 17:49:50;;;;;;;4.4;1.4;;;;;;;;;;;;;
2019/09/18 17:52:15;;;;;;;6.8;1.3;;;;;;;;;;;;;
2019/09/18 17:54:40;;;;;;;5.6;1.4;;;;;;;;;;;;;
2019/09/18 17:57:05;;;;;;;4.4;1.2;;;;;;;;;;;;;
2019/09/18 17:59:30;;;;;;;5.2;1.4;;;;;;;;;;;;;
2019/09/18 18:01:55;;;;;;;5.5;1.3;;;;;;;;;;;;;
2019/09/18 18:04:20;;;;;;;6.4;1.4;;;;;;;;;;;;;
2019/09/18 18:06:45;;;;;;;4.5;1.3;;;;;;;;;;;;;